sensor_id;sensor_type;location;lat;lon;timestamp;pressure;altitude;pressure_sealevel;temperature;humidity
58072;BME280;60383;46.626;18.866;2022-09-25T00:01:08;100313.75;;;14.54;66.35
58072;BME280;60383;46.626;18.866;2022-09-25T00:03:34;100312.38;;;14.74;65.31
58072;BME280;60383;46.626;18.866;2022-09-25T00:08:29;100307.19;;;14.79;64.86
58072;BME280;60383;46.626;18.866;2022-09-25T00:10:55;100314.56;;;14.78;64.95
58072;BME280;60383;46.626;18.866;2022-09-25T00:13:21;100311.88;;;14.70;64.93
58072;BME280;60383;46.626;18.866;2022-09-25T00:15:52;100310.81;;;14.56;65.34
58072;BME280;60383;46.626;18.866;2022-09-25T00:18:19;100310.88;;;14.63;64.85
58072;BME280;60383;46.626;18.866;2022-09-25T00:21:04;100316.41;;;14.63;64.73
58072;BME280;60383;46.626;18.866;2022-09-25T00:23:31;100304.06;;;14.59;64.55
58072;BME280;60383;46.626;18.866;2022-09-25T00:25:59;100304.09;;;14.74;63.62
58072;BME280;60383;46.626;18.866;2022-09-25T00:28:25;100298.81;;;14.64;63.65
58072;BME280;60383;46.626;18.866;2022-09-25T00:30:53;100301.44;;;14.65;63.17
58072;BME280;60383;46.626;18.866;2022-09-25T00:33:18;100308.81;;;14.65;62.81
58072;BME280;60383;46.626;18.866;2022-09-25T00:35:44;100303.63;;;14.70;62.59
58072;BME280;60383;46.626;18.866;2022-09-25T00:38:09;100302.09;;;14.67;62.61
58072;BME280;60383;46.626;18.866;2022-09-25T00:40:34;100306.06;;;14.65;62.70
58072;BME280;60383;46.626;18.866;2022-09-25T00:43:00;100302.28;;;14.66;62.49
58072;BME280;60383;46.626;18.866;2022-09-25T00:45:25;100290.00;;;14.53;63.09
58072;BME280;60383;46.626;18.866;2022-09-25T00:47:55;100289.91;;;14.62;62.61
58072;BME280;60383;46.626;18.866;2022-09-25T00:51:08;100288.69;;;14.64;62.43
58072;BME280;60383;46.626;18.866;2022-09-25T00:53:18;100297.47;;;14.68;62.28
58072;BME280;60383;46.626;18.866;2022-09-25T00:55:45;100289.19;;;14.68;62.19
58072;BME280;60383;46.626;18.866;2022-09-25T00:58:12;100298.09;;;14.70;62.23
58072;BME280;60383;46.626;18.866;2022-09-25T01:00:39;100297.50;;;14.60;62.82
58072;BME280;60383;46.626;18.866;2022-09-25T01:03:06;100297.88;;;14.57;62.89
58072;BME280;60383;46.626;18.866;2022-09-25T01:05:35;100294.63;;;14.53;62.97
58072;BME280;60383;46.626;18.866;2022-09-25T01:08:03;100293.22;;;14.57;63.00
58072;BME280;60383;46.626;18.866;2022-09-25T01:10:30;100291.88;;;14.53;63.10
58072;BME280;60383;46.626;18.866;2022-09-25T01:12:56;100290.47;;;14.57;63.77
58072;BME280;60383;46.626;18.866;2022-09-25T01:15:40;100281.88;;;14.52;64.21
58072;BME280;60383;46.626;18.866;2022-09-25T01:29:14;100279.28;;;14.74;64.62
58072;BME280;60383;46.626;18.866;2022-09-25T01:34:26;100281.22;;;14.73;64.02
58072;BME280;60383;46.626;18.866;2022-09-25T01:37:00;100271.28;;;14.64;64.55
58072;BME280;60383;46.626;18.866;2022-09-25T01:39:31;100273.19;;;14.63;64.79
58072;BME280;60383;46.626;18.866;2022-09-25T01:44:31;100277.28;;;14.67;64.70
58072;BME280;60383;46.626;18.866;2022-09-25T01:47:01;100286.47;;;14.60;65.03
58072;BME280;60383;46.626;18.866;2022-09-25T01:49:36;100284.47;;;14.53;65.44
58072;BME280;60383;46.626;18.866;2022-09-25T01:52:07;100286.56;;;14.51;65.19
58072;BME280;60383;46.626;18.866;2022-09-25T01:54:40;100288.28;;;14.52;64.69
58072;BME280;60383;46.626;18.866;2022-09-25T01:57:17;100288.47;;;14.51;64.60
58072;BME280;60383;46.626;18.866;2022-09-25T01:59:58;100286.00;;;14.56;63.91
58072;BME280;60383;46.626;18.866;2022-09-25T02:02:30;100276.38;;;14.52;64.36
58072;BME280;60383;46.626;18.866;2022-09-25T02:05:04;100284.53;;;14.45;65.03
58072;BME280;60383;46.626;18.866;2022-09-25T02:07:39;100283.28;;;14.33;65.26
58072;BME280;60383;46.626;18.866;2022-09-25T02:10:15;100282.31;;;14.26;65.83
58072;BME280;60383;46.626;18.866;2022-09-25T02:12:46;100287.75;;;14.34;66.01
58072;BME280;60383;46.626;18.866;2022-09-25T02:15:28;100293.56;;;14.39;66.19
58072;BME280;60383;46.626;18.866;2022-09-25T02:18:03;100280.94;;;14.45;66.07
58072;BME280;60383;46.626;18.866;2022-09-25T02:20:54;100281.03;;;14.36;67.15
58072;BME280;60383;46.626;18.866;2022-09-25T02:23:52;100290.81;;;14.39;67.99
58072;BME280;60383;46.626;18.866;2022-09-25T02:26:29;100286.66;;;14.20;69.36
58072;BME280;60383;46.626;18.866;2022-09-25T02:28:56;100282.13;;;14.27;69.55
58072;BME280;60383;46.626;18.866;2022-09-25T02:31:27;100279.22;;;14.44;67.63
58072;BME280;60383;46.626;18.866;2022-09-25T02:33:54;100283.38;;;14.40;66.61
58072;BME280;60383;46.626;18.866;2022-09-25T02:36:20;100274.22;;;14.47;67.46
58072;BME280;60383;46.626;18.866;2022-09-25T02:38:49;100274.75;;;14.43;67.48
58072;BME280;60383;46.626;18.866;2022-09-25T02:49:03;100263.53;;;14.44;66.33
58072;BME280;60383;46.626;18.866;2022-09-25T02:54:45;100266.56;;;14.34;65.75
58072;BME280;60383;46.626;18.866;2022-09-25T02:57:17;100256.59;;;14.33;66.16
58072;BME280;60383;46.626;18.866;2022-09-25T02:59:52;100259.72;;;14.30;66.27
58072;BME280;60383;46.626;18.866;2022-09-25T03:02:20;100256.84;;;14.24;67.27
58072;BME280;60383;46.626;18.866;2022-09-25T03:04:47;100257.53;;;14.26;67.27
58072;BME280;60383;46.626;18.866;2022-09-25T03:07:15;100253.41;;;14.21;67.01
58072;BME280;60383;46.626;18.866;2022-09-25T03:09:43;100247.91;;;14.21;66.92
58072;BME280;60383;46.626;18.866;2022-09-25T03:12:12;100241.25;;;14.16;67.42
58072;BME280;60383;46.626;18.866;2022-09-25T03:14:38;100248.09;;;14.20;67.73
58072;BME280;60383;46.626;18.866;2022-09-25T03:17:06;100253.66;;;14.12;68.41
58072;BME280;60383;46.626;18.866;2022-09-25T03:19:33;100251.53;;;14.22;68.66
58072;BME280;60383;46.626;18.866;2022-09-25T03:22:00;100252.91;;;14.18;69.10
58072;BME280;60383;46.626;18.866;2022-09-25T03:24:26;100252.69;;;14.04;69.39
58072;BME280;60383;46.626;18.866;2022-09-25T03:26:51;100256.34;;;14.20;69.55
58072;BME280;60383;46.626;18.866;2022-09-25T03:29:18;100250.06;;;14.11;69.66
58072;BME280;60383;46.626;18.866;2022-09-25T03:31:45;100247.66;;;14.08;69.48
58072;BME280;60383;46.626;18.866;2022-09-25T03:34:12;100257.09;;;14.14;69.50
58072;BME280;60383;46.626;18.866;2022-09-25T03:36:38;100253.91;;;14.02;69.65
58072;BME280;60383;46.626;18.866;2022-09-25T03:39:04;100260.84;;;13.98;70.10
58072;BME280;60383;46.626;18.866;2022-09-25T03:41:32;100262.63;;;13.90;71.05
58072;BME280;60383;46.626;18.866;2022-09-25T03:43:58;100256.94;;;13.92;70.72
58072;BME280;60383;46.626;18.866;2022-09-25T03:46:31;100259.00;;;13.90;70.74
58072;BME280;60383;46.626;18.866;2022-09-25T03:48:57;100262.63;;;13.90;70.41
58072;BME280;60383;46.626;18.866;2022-09-25T03:51:25;100253.88;;;13.87;69.96
58072;BME280;60383;46.626;18.866;2022-09-25T03:53:50;100261.75;;;13.90;70.13
58072;BME280;60383;46.626;18.866;2022-09-25T03:56:19;100262.13;;;13.87;69.76
58072;BME280;60383;46.626;18.866;2022-09-25T03:58:46;100258.34;;;13.88;70.22
58072;BME280;60383;46.626;18.866;2022-09-25T04:01:13;100255.41;;;13.89;69.81
58072;BME280;60383;46.626;18.866;2022-09-25T04:03:39;100262.63;;;13.90;70.08
58072;BME280;60383;46.626;18.866;2022-09-25T04:06:07;100253.56;;;13.82;69.94
58072;BME280;60383;46.626;18.866;2022-09-25T04:08:34;100255.50;;;13.73;70.13
58072;BME280;60383;46.626;18.866;2022-09-25T04:11:00;100252.41;;;13.76;70.76
58072;BME280;60383;46.626;18.866;2022-09-25T04:13:31;100247.69;;;13.85;70.44
58072;BME280;60383;46.626;18.866;2022-09-25T04:15:58;100245.88;;;13.77;70.91
58072;BME280;60383;46.626;18.866;2022-09-25T04:18:25;100246.41;;;13.72;71.44
58072;BME280;60383;46.626;18.866;2022-09-25T04:21:05;100250.00;;;13.73;71.10
58072;BME280;60383;46.626;18.866;2022-09-25T04:23:32;100254.34;;;13.67;71.20
58072;BME280;60383;46.626;18.866;2022-09-25T04:25:58;100247.44;;;13.71;71.07
58072;BME280;60383;46.626;18.866;2022-09-25T04:28:24;100247.09;;;13.74;71.17
58072;BME280;60383;46.626;18.866;2022-09-25T04:30:50;100244.97;;;13.77;70.69
58072;BME280;60383;46.626;18.866;2022-09-25T04:33:16;100244.97;;;13.77;70.89
58072;BME280;60383;46.626;18.866;2022-09-25T04:36:01;100242.91;;;13.79;70.51
58072;BME280;60383;46.626;18.866;2022-09-25T04:38:27;100248.47;;;13.70;70.60
58072;BME280;60383;46.626;18.866;2022-09-25T04:40:55;100250.88;;;13.73;70.50
58072;BME280;60383;46.626;18.866;2022-09-25T04:43:22;100256.31;;;13.82;70.10
58072;BME280;60383;46.626;18.866;2022-09-25T04:45:48;100251.91;;;13.72;70.66
58072;BME280;60383;46.626;18.866;2022-09-25T04:48:13;100249.66;;;13.76;70.49
58072;BME280;60383;46.626;18.866;2022-09-25T04:50:38;100256.88;;;13.77;70.25
58072;BME280;60383;46.626;18.866;2022-09-25T04:53:04;100252.75;;;13.73;70.48
58072;BME280;60383;46.626;18.866;2022-09-25T04:55:29;100249.88;;;13.66;70.64
58072;BME280;60383;46.626;18.866;2022-09-25T04:57:59;100256.19;;;13.44;71.51
58072;BME280;60383;46.626;18.866;2022-09-25T05:00:26;100257.66;;;13.63;70.69
58072;BME280;60383;46.626;18.866;2022-09-25T05:02:52;100255.81;;;13.55;71.07
58072;BME280;60383;46.626;18.866;2022-09-25T05:05:17;100264.19;;;13.62;71.46
58072;BME280;60383;46.626;18.866;2022-09-25T05:08:02;100271.59;;;13.61;71.81
58072;BME280;60383;46.626;18.866;2022-09-25T05:10:32;100270.56;;;13.62;71.43
58072;BME280;60383;46.626;18.866;2022-09-25T05:13:02;100280.84;;;13.68;71.31
58072;BME280;60383;46.626;18.866;2022-09-25T05:15:30;100280.13;;;13.74;71.74
58072;BME280;60383;46.626;18.866;2022-09-25T05:18:22;100285.13;;;13.71;72.00
58072;BME280;60383;46.626;18.866;2022-09-25T05:20:49;100286.50;;;13.67;72.16
58072;BME280;60383;46.626;18.866;2022-09-25T05:23:15;100287.84;;;13.79;71.78
58072;BME280;60383;46.626;18.866;2022-09-25T05:25:41;100288.38;;;13.74;71.55
58072;BME280;60383;46.626;18.866;2022-09-25T05:28:08;100287.09;;;13.85;70.80
58072;BME280;60383;46.626;18.866;2022-09-25T05:30:36;100288.88;;;13.78;71.28
58072;BME280;60383;46.626;18.866;2022-09-25T05:33:02;100288.19;;;13.76;71.00
58072;BME280;60383;46.626;18.866;2022-09-25T05:35:30;100282.56;;;13.69;71.78
58072;BME280;60383;46.626;18.866;2022-09-25T05:37:56;100296.31;;;13.69;71.86
58072;BME280;60383;46.626;18.866;2022-09-25T05:40:21;100292.16;;;13.73;71.96
58072;BME280;60383;46.626;18.866;2022-09-25T05:42:48;100295.94;;;13.72;71.91
58072;BME280;60383;46.626;18.866;2022-09-25T05:45:15;100293.06;;;13.66;72.57
58072;BME280;60383;46.626;18.866;2022-09-25T05:47:41;100293.88;;;13.74;72.46
58072;BME280;60383;46.626;18.866;2022-09-25T05:50:08;100296.44;;;13.76;72.37
58072;BME280;60383;46.626;18.866;2022-09-25T05:52:34;100299.38;;;13.74;72.36
58072;BME280;60383;46.626;18.866;2022-09-25T05:55:00;100292.41;;;13.87;71.12
58072;BME280;60383;46.626;18.866;2022-09-25T05:57:30;100304.34;;;13.79;71.90
58072;BME280;60383;46.626;18.866;2022-09-25T05:59:55;100311.78;;;13.94;71.52
58072;BME280;60383;46.626;18.866;2022-09-25T06:02:21;100314.53;;;13.94;71.52
58072;BME280;60383;46.626;18.866;2022-09-25T06:04:46;100313.34;;;13.96;71.64
58072;BME280;60383;46.626;18.866;2022-09-25T06:07:11;100316.81;;;13.90;71.88
58072;BME280;60383;46.626;18.866;2022-09-25T06:09:37;100312.75;;;13.78;72.73
58072;BME280;60383;46.626;18.866;2022-09-25T06:12:02;100313.41;;;13.88;73.34
58072;BME280;60383;46.626;18.866;2022-09-25T06:14:28;100308.88;;;13.95;72.41
58072;BME280;60383;46.626;18.866;2022-09-25T06:16:54;100310.47;;;13.89;72.50
58072;BME280;60383;46.626;18.866;2022-09-25T06:19:19;100311.63;;;13.95;72.12
58072;BME280;60383;46.626;18.866;2022-09-25T06:21:45;100312.28;;;13.97;72.28
58072;BME280;60383;46.626;18.866;2022-09-25T06:24:11;100309.97;;;14.09;71.03
58072;BME280;60383;46.626;18.866;2022-09-25T06:26:37;100308.81;;;14.03;71.29
58072;BME280;60383;46.626;18.866;2022-09-25T06:29:02;100303.44;;;14.10;70.87
58072;BME280;60383;46.626;18.866;2022-09-25T06:31:28;100311.00;;;14.08;70.75
58072;BME280;60383;46.626;18.866;2022-09-25T06:33:53;100306.66;;;14.14;70.60
58072;BME280;60383;46.626;18.866;2022-09-25T06:36:19;100309.72;;;14.19;69.96
58072;BME280;60383;46.626;18.866;2022-09-25T06:38:44;100305.09;;;14.19;70.17
58072;BME280;60383;46.626;18.866;2022-09-25T06:41:10;100314.75;;;14.15;70.37
58072;BME280;60383;46.626;18.866;2022-09-25T06:43:36;100316.50;;;14.08;71.27
58072;BME280;60383;46.626;18.866;2022-09-25T06:46:02;100304.28;;;14.11;71.18
58072;BME280;60383;46.626;18.866;2022-09-25T06:48:28;100311.19;;;14.06;71.86
58072;BME280;60383;46.626;18.866;2022-09-25T06:50:56;100318.38;;;14.16;71.92
58072;BME280;60383;46.626;18.866;2022-09-25T06:53:24;100317.63;;;14.22;71.14
58072;BME280;60383;46.626;18.866;2022-09-25T06:55:50;100311.19;;;14.30;70.88
58072;BME280;60383;46.626;18.866;2022-09-25T06:58:21;100310.38;;;14.44;70.75
58072;BME280;60383;46.626;18.866;2022-09-25T07:00:53;100315.63;;;14.54;70.37
58072;BME280;60383;46.626;18.866;2022-09-25T07:03:19;100307.00;;;14.57;70.48
58072;BME280;60383;46.626;18.866;2022-09-25T07:06:04;100305.72;;;14.68;69.90
58072;BME280;60383;46.626;18.866;2022-09-25T07:08:30;100313.88;;;14.76;70.20
58072;BME280;60383;46.626;18.866;2022-09-25T07:10:57;100308.13;;;14.86;70.45
58072;BME280;60383;46.626;18.866;2022-09-25T07:13:24;100308.13;;;15.01;68.89
58072;BME280;60383;46.626;18.866;2022-09-25T07:18:16;100302.31;;;15.26;69.14
58072;BME280;60383;46.626;18.866;2022-09-25T07:20:42;100296.03;;;15.32;70.09
58072;BME280;60383;46.626;18.866;2022-09-25T07:23:09;100296.19;;;15.45;69.53
58072;BME280;60383;46.626;18.866;2022-09-25T07:25:35;100301.78;;;15.67;66.35
58072;BME280;60383;46.626;18.866;2022-09-25T07:28:00;100301.97;;;15.65;68.24
58072;BME280;60383;46.626;18.866;2022-09-25T07:30:27;100304.16;;;15.85;66.38
58072;BME280;60383;46.626;18.866;2022-09-25T07:32:53;100302.06;;;15.87;65.23
58072;BME280;60383;46.626;18.866;2022-09-25T07:35:18;100308.22;;;15.89;65.64
58072;BME280;60383;46.626;18.866;2022-09-25T07:37:44;100307.00;;;15.92;63.86
58072;BME280;60383;46.626;18.866;2022-09-25T07:40:09;100299.75;;;15.91;64.02
58072;BME280;60383;46.626;18.866;2022-09-25T07:42:39;100297.63;;;15.93;64.21
58072;BME280;60383;46.626;18.866;2022-09-25T07:45:05;100288.88;;;15.89;64.09
58072;BME280;60383;46.626;18.866;2022-09-25T07:47:30;100285.41;;;16.02;63.21
58072;BME280;60383;46.626;18.866;2022-09-25T07:49:56;100282.44;;;16.04;62.51
58072;BME280;60383;46.626;18.866;2022-09-25T07:52:22;100279.69;;;16.04;62.01
58072;BME280;60383;46.626;18.866;2022-09-25T07:54:48;100279.22;;;16.00;61.74
58072;BME280;60383;46.626;18.866;2022-09-25T07:57:13;100292.78;;;15.95;61.63
58072;BME280;60383;46.626;18.866;2022-09-25T07:59:39;100292.19;;;16.00;61.83
58072;BME280;60383;46.626;18.866;2022-09-25T08:02:05;100286.81;;;16.13;60.35
58072;BME280;60383;46.626;18.866;2022-09-25T08:04:30;100278.25;;;16.08;60.65
58072;BME280;60383;46.626;18.866;2022-09-25T08:06:58;100293.16;;;16.13;60.05
58072;BME280;60383;46.626;18.866;2022-09-25T08:09:24;100284.88;;;16.13;60.29
58072;BME280;60383;46.626;18.866;2022-09-25T08:11:49;100286.00;;;16.19;60.34
58072;BME280;60383;46.626;18.866;2022-09-25T08:14:15;100291.91;;;16.38;60.31
58072;BME280;60383;46.626;18.866;2022-09-25T08:16:42;100285.09;;;16.34;60.57
58072;BME280;60383;46.626;18.866;2022-09-25T08:19:09;100290.25;;;16.43;59.74
58072;BME280;60383;46.626;18.866;2022-09-25T08:21:35;100289.31;;;16.58;60.78
58072;BME280;60383;46.626;18.866;2022-09-25T08:24:01;100282.78;;;16.66;58.97
58072;BME280;60383;46.626;18.866;2022-09-25T08:26:26;100279.28;;;16.85;59.65
58072;BME280;60383;46.626;18.866;2022-09-25T08:28:56;100276.03;;;17.03;57.87
58072;BME280;60383;46.626;18.866;2022-09-25T08:31:22;100272.13;;;17.19;58.66
58072;BME280;60383;46.626;18.866;2022-09-25T08:33:48;100268.47;;;17.19;57.66
58072;BME280;60383;46.626;18.866;2022-09-25T08:36:15;100282.66;;;17.51;55.97
58072;BME280;60383;46.626;18.866;2022-09-25T08:38:41;100279.09;;;17.57;56.52
58072;BME280;60383;46.626;18.866;2022-09-25T08:41:26;100281.97;;;17.35;56.49
58072;BME280;60383;46.626;18.866;2022-09-25T08:46:51;100281.38;;;17.40;55.70
58072;BME280;60383;46.626;18.866;2022-09-25T08:49:44;100279.88;;;17.51;55.04
58072;BME280;60383;46.626;18.866;2022-09-25T08:52:16;100281.19;;;17.55;55.64
58072;BME280;60383;46.626;18.866;2022-09-25T08:54:42;100286.56;;;17.63;55.78
58072;BME280;60383;46.626;18.866;2022-09-25T08:57:20;100297.00;;;17.68;55.50
58072;BME280;60383;46.626;18.866;2022-09-25T08:59:52;100290.00;;;17.72;54.79
58072;BME280;60383;46.626;18.866;2022-09-25T09:02:23;100292.28;;;17.62;56.18
58072;BME280;60383;46.626;18.866;2022-09-25T09:04:53;100297.00;;;17.68;55.29
58072;BME280;60383;46.626;18.866;2022-09-25T09:10:08;100309.19;;;17.80;54.90
58072;BME280;60383;46.626;18.866;2022-09-25T09:12:44;100304.69;;;17.72;54.40
58072;BME280;60383;46.626;18.866;2022-09-25T09:15:39;100309.19;;;17.80;53.90
58072;BME280;60383;46.626;18.866;2022-09-25T09:18:20;100307.50;;;17.86;53.73
58072;BME280;60383;46.626;18.866;2022-09-25T09:20:57;100301.75;;;17.81;54.43
58072;BME280;60383;46.626;18.866;2022-09-25T09:27:13;100282.84;;;17.98;53.65
58072;BME280;60383;46.626;18.866;2022-09-25T09:35:41;100275.59;;;17.97;54.45
58072;BME280;60383;46.626;18.866;2022-09-25T09:40:52;100269.44;;;18.15;53.83
58072;BME280;60383;46.626;18.866;2022-09-25T09:43:55;100265.84;;;18.14;54.22
58072;BME280;60383;46.626;18.866;2022-09-25T09:46:48;100263.28;;;18.33;53.52
58072;BME280;60383;46.626;18.866;2022-09-25T09:51:55;100258.78;;;18.32;52.75
58072;BME280;60383;46.626;18.866;2022-09-25T09:54:45;100247.50;;;18.27;53.41
58072;BME280;60383;46.626;18.866;2022-09-25T09:57:26;100254.53;;;18.16;54.13
58072;BME280;60383;46.626;18.866;2022-09-25T10:00:04;100256.25;;;18.30;53.09
58072;BME280;60383;46.626;18.866;2022-09-25T10:02:42;100250.28;;;18.40;53.18
58072;BME280;60383;46.626;18.866;2022-09-25T10:07:50;100241.75;;;18.22;53.44
58072;BME280;60383;46.626;18.866;2022-09-25T10:10:17;100244.28;;;18.30;54.32
58072;BME280;60383;46.626;18.866;2022-09-25T10:12:48;100241.31;;;18.25;53.51
58072;BME280;60383;46.626;18.866;2022-09-25T10:15:24;100241.94;;;18.20;53.40
58072;BME280;60383;46.626;18.866;2022-09-25T10:17:52;100240.59;;;17.89;54.74
58072;BME280;60383;46.626;18.866;2022-09-25T10:20:21;100240.03;;;18.14;54.69
58072;BME280;60383;46.626;18.866;2022-09-25T10:22:49;100246.63;;;18.13;54.70
58072;BME280;60383;46.626;18.866;2022-09-25T10:25:34;100240.47;;;18.11;53.65
58072;BME280;60383;46.626;18.866;2022-09-25T10:28:20;100234.06;;;18.03;54.77
58072;BME280;60383;46.626;18.866;2022-09-25T10:30:46;100229.94;;;17.86;54.96
58072;BME280;60383;46.626;18.866;2022-09-25T10:33:17;100229.97;;;17.93;55.69
58072;BME280;60383;46.626;18.866;2022-09-25T10:35:45;100219.34;;;17.96;54.83
58072;BME280;60383;46.626;18.866;2022-09-25T10:38:43;100225.94;;;17.95;53.50
58072;BME280;60383;46.626;18.866;2022-09-25T10:41:19;100233.56;;;17.80;53.59
58072;BME280;60383;46.626;18.866;2022-09-25T10:43:56;100227.88;;;17.95;52.74
58072;BME280;60383;46.626;18.866;2022-09-25T10:46:32;100232.28;;;17.82;53.98
58072;BME280;60383;46.626;18.866;2022-09-25T10:49:21;100233.94;;;17.70;55.21
58072;BME280;60383;46.626;18.866;2022-09-25T10:52:08;100218.81;;;17.59;54.20
58072;BME280;60383;46.626;18.866;2022-09-25T10:54:34;100219.88;;;17.65;55.91
58072;BME280;60383;46.626;18.866;2022-09-25T10:57:12;100217.56;;;17.75;54.22
58072;BME280;60383;46.626;18.866;2022-09-25T10:59:38;100211.63;;;17.78;53.90
58072;BME280;60383;46.626;18.866;2022-09-25T11:02:12;100219.47;;;17.68;54.90
58072;BME280;60383;46.626;18.866;2022-09-25T11:04:42;100215.84;;;17.67;54.22
58072;BME280;60383;46.626;18.866;2022-09-25T11:07:15;100216.25;;;17.58;54.55
58072;BME280;60383;46.626;18.866;2022-09-25T11:09:43;100214.31;;;17.58;55.33
58072;BME280;60383;46.626;18.866;2022-09-25T11:12:15;100213.47;;;17.58;55.04
58072;BME280;60383;46.626;18.866;2022-09-25T11:14:51;100204.34;;;17.57;55.49
58072;BME280;60383;46.626;18.866;2022-09-25T11:17:39;100208.38;;;17.61;55.77
58072;BME280;60383;46.626;18.866;2022-09-25T11:23:14;100208.13;;;17.49;54.53
58072;BME280;60383;46.626;18.866;2022-09-25T11:28:29;100206.41;;;17.42;58.15
58072;BME280;60383;46.626;18.866;2022-09-25T11:33:41;100205.34;;;17.43;60.04
58072;BME280;60383;46.626;18.866;2022-09-25T11:36:19;100202.16;;;17.46;60.86
58072;BME280;60383;46.626;18.866;2022-09-25T11:38:55;100200.19;;;17.26;59.24
58072;BME280;60383;46.626;18.866;2022-09-25T11:41:48;100203.34;;;17.23;61.07
58072;BME280;60383;46.626;18.866;2022-09-25T11:49:53;100218.59;;;17.54;63.69
58072;BME280;60383;46.626;18.866;2022-09-25T12:00:21;100198.13;;;17.48;58.91
58072;BME280;60383;46.626;18.866;2022-09-25T12:03:32;100194.75;;;17.60;59.53
58072;BME280;60383;46.626;18.866;2022-09-25T12:11:32;100196.88;;;17.64;59.92
58072;BME280;60383;46.626;18.866;2022-09-25T12:17:03;100193.84;;;17.39;61.57
58072;BME280;60383;46.626;18.866;2022-09-25T12:36:30;100143.63;;;17.69;58.98
58072;BME280;60383;46.626;18.866;2022-09-25T12:39:10;100137.91;;;17.84;58.86
58072;BME280;60383;46.626;18.866;2022-09-25T12:41:49;100132.38;;;17.84;58.65
58072;BME280;60383;46.626;18.866;2022-09-25T12:44:20;100134.50;;;17.82;57.89
58072;BME280;60383;46.626;18.866;2022-09-25T12:46:58;100132.34;;;17.91;57.94
58072;BME280;60383;46.626;18.866;2022-09-25T12:49:27;100131.72;;;17.88;57.68
58072;BME280;60383;46.626;18.866;2022-09-25T12:52:00;100132.38;;;17.84;57.52
58072;BME280;60383;46.626;18.866;2022-09-25T12:54:35;100131.94;;;17.94;58.11
58072;BME280;60383;46.626;18.866;2022-09-25T12:57:18;100127.28;;;18.01;58.16
58072;BME280;60383;46.626;18.866;2022-09-25T12:59:50;100133.66;;;17.81;57.55
58072;BME280;60383;46.626;18.866;2022-09-25T13:02:45;100130.88;;;17.81;57.73
58072;BME280;60383;46.626;18.866;2022-09-25T13:05:24;100126.19;;;17.82;58.11
58072;BME280;60383;46.626;18.866;2022-09-25T13:10:56;100135.34;;;17.82;57.84
58072;BME280;60383;46.626;18.866;2022-09-25T13:13:25;100132.34;;;17.77;57.97
58072;BME280;60383;46.626;18.866;2022-09-25T13:15:55;100137.03;;;17.83;58.95
58072;BME280;60383;46.626;18.866;2022-09-25T13:18:23;100140.25;;;17.80;58.55
58072;BME280;60383;46.626;18.866;2022-09-25T13:20:50;100139.19;;;17.81;57.78
58072;BME280;60383;46.626;18.866;2022-09-25T13:23:29;100133.63;;;17.88;58.62
58072;BME280;60383;46.626;18.866;2022-09-25T13:25:59;100130.63;;;17.76;58.50
58072;BME280;60383;46.626;18.866;2022-09-25T13:28:37;100123.19;;;17.83;58.20
58072;BME280;60383;46.626;18.866;2022-09-25T13:31:12;100119.56;;;17.76;58.56
58072;BME280;60383;46.626;18.866;2022-09-25T13:34:04;100114.69;;;17.78;59.06
58072;BME280;60383;46.626;18.866;2022-09-25T13:37:15;100115.94;;;17.82;59.34
58072;BME280;60383;46.626;18.866;2022-09-25T13:42:26;100089.97;;;17.97;59.27
58072;BME280;60383;46.626;18.866;2022-09-25T13:45:00;100095.06;;;18.07;59.68
58072;BME280;60383;46.626;18.866;2022-09-25T14:03:04;100087.16;;;18.30;59.65
58072;BME280;60383;46.626;18.866;2022-09-25T14:05:31;100086.50;;;18.35;59.64
58072;BME280;60383;46.626;18.866;2022-09-25T14:08:11;100088.38;;;18.48;59.71
58072;BME280;60383;46.626;18.866;2022-09-25T14:10:50;100083.47;;;18.43;59.32
58072;BME280;60383;46.626;18.866;2022-09-25T14:13:18;100083.06;;;18.53;58.58
58072;BME280;60383;46.626;18.866;2022-09-25T14:15:48;100084.72;;;18.54;58.89
58072;BME280;60383;46.626;18.866;2022-09-25T14:18:24;100081.31;;;18.59;58.27
58072;BME280;60383;46.626;18.866;2022-09-25T14:20:56;100082.59;;;18.56;58.72
58072;BME280;60383;46.626;18.866;2022-09-25T14:23:28;100084.72;;;18.61;59.34
58072;BME280;60383;46.626;18.866;2022-09-25T14:28:31;100080.47;;;18.58;58.41
58072;BME280;60383;46.626;18.866;2022-09-25T14:37:23;100086.97;;;18.25;60.49
58072;BME280;60383;46.626;18.866;2022-09-25T14:42:14;100079.53;;;18.12;60.60
58072;BME280;60383;46.626;18.866;2022-09-25T14:47:56;100079.31;;;18.07;60.71
58072;BME280;60383;46.626;18.866;2022-09-25T14:50:32;100069.53;;;18.04;61.58
58072;BME280;60383;46.626;18.866;2022-09-25T14:53:04;100065.03;;;17.97;62.03
58072;BME280;60383;46.626;18.866;2022-09-25T14:55:38;100071.22;;;17.85;61.90
58072;BME280;60383;46.626;18.866;2022-09-25T14:58:09;100078.03;;;17.83;62.05
58072;BME280;60383;46.626;18.866;2022-09-25T15:00:45;100060.13;;;17.72;61.89
58072;BME280;60383;46.626;18.866;2022-09-25T15:03:14;100053.72;;;17.71;62.99
58072;BME280;60383;46.626;18.866;2022-09-25T15:05:47;100047.78;;;17.68;62.39
58072;BME280;60383;46.626;18.866;2022-09-25T15:08:30;100045.66;;;17.70;62.52
58072;BME280;60383;46.626;18.866;2022-09-25T15:11:09;100031.16;;;17.68;63.12
58072;BME280;60383;46.626;18.866;2022-09-25T15:13:36;100044.81;;;17.69;63.42
58072;BME280;60383;46.626;18.866;2022-09-25T15:16:02;100050.34;;;17.56;63.35
58072;BME280;60383;46.626;18.866;2022-09-25T15:18:52;100039.03;;;17.51;63.99